Friday, May 25, 2018, 8:52 AM EDT
Back to Local

KWWD, Wildwood, Cape May County Airport

Location: Villas, NJ, United States Lat: 39.017
Local Time: 8:52 AM EDT (12:52 GMT) Lon: -74.917
Time Zone: US/Eastern Elev: 22 ft

Show me the last for .
Show Decoded

2018-05-25 07:55 METAR KWWD 251155Z AUTO 22008KT 10SM CLR 21/17 A3011 RMK AO2 SLP200 T02110172
                 10211 20144 50003 =
2018-05-25 06:55 METAR KWWD 251055Z AUTO 23005KT 10SM CLR 18/15 A3012 RMK AO2 SLP201 T01830150 =
2018-05-25 05:55 METAR KWWD 250955Z AUTO 00000KT 10SM CLR 15/13 A3011 RMK AO2 SLP199 T01500133 =
2018-05-25 04:55 METAR KWWD 250855Z AUTO 00000KT 10SM CLR 15/13 A3011 RMK AO2 SLP197 T01500133
                 56010 =
2018-05-25 03:55 METAR KWWD 250755Z AUTO 00000KT 10SM CLR 15/13 A3011 RMK AO2 SLP198 T01500133 =
2018-05-25 02:55 METAR KWWD 250655Z AUTO 16003KT 10SM CLR 14/13 A3012 RMK AO2 SLP202 T01440133 =
2018-05-25 01:55 METAR KWWD 250555Z AUTO 21003KT 10SM CLR 16/14 A3014 RMK AO2 SLP207 T01610144
                 10189 20161 58008 =
2018-05-25 00:55 METAR KWWD 250455Z AUTO 21004KT 10SM CLR 16/14 A3015 RMK AO2 SLP210 T01610144
                 402670161 =
2018-05-24 23:55 METAR KWWD 250355Z AUTO 18005KT 10SM CLR 17/14 A3015 RMK AO2 SLP213 T01670144 =
2018-05-24 22:55 METAR KWWD 250255Z AUTO 20006KT 10SM CLR 17/14 A3016 RMK AO2 SLP216 T01720144
                 50005 =
2018-05-24 21:55 METAR KWWD 250155Z AUTO 17005KT 10SM CLR 17/14 A3016 RMK AO2 SLP217 T01720139 =
2018-05-24 20:55 METAR KWWD 250055Z AUTO 19008KT 10SM CLR 18/13 A3015 RMK AO2 SLP211 T01780133 =
2018-05-24 19:55 METAR KWWD 242355Z AUTO 17006KT 10SM CLR 19/13 A3015 RMK AO2 SLP210 T01890128
                 10250 20189 55004 =
2018-05-24 18:55 METAR KWWD 242255Z AUTO 15010KT 10SM CLR 21/12 A3014 RMK AO2 SLP208 T02060117 =
2018-05-24 17:55 METAR KWWD 242155Z AUTO 14010KT 10SM CLR 22/11 A3015 RMK AO2 SLP212 T02220111 =
2018-05-24 16:55 METAR KWWD 242055Z AUTO 14010KT 10SM CLR 23/08 A3016 RMK AO2 SLP214 T02330083
                 58002 =
2018-05-24 15:55 METAR KWWD 241955Z AUTO 13009KT 10SM CLR 24/06 A3016 RMK AO2 SLP216 T02440056 =
2018-05-24 14:55 METAR KWWD 241855Z AUTO 17006KT 10SM CLR 25/11 A3017 RMK AO2 SLP217 T02500106 =
2018-05-24 13:55 METAR KWWD 241755Z AUTO 15006KT 10SM CLR 24/12 A3016 RMK AO2 SLP216 T02440122
                 10267 20211 50002 =
2018-05-24 12:55 METAR KWWD 241655Z AUTO 16011KT 10SM CLR 25/14 A3017 RMK AO2 SLP218 T02500139 =
2018-05-24 11:55 METAR KWWD 241555Z AUTO 11008KT 10SM CLR 26/14 A3017 RMK AO2 SLP217 T02610139 =
2018-05-24 10:55 METAR KWWD 241455Z AUTO 32008KT 10SM CLR 25/14 A3016 RMK AO2 SLP214 T02500139
                 53005 =
2018-05-24 09:55 METAR KWWD 241355Z AUTO 01006KT 10SM CLR 23/13 A3015 RMK AO2 SLP211 T02330133 =
2018-05-24 08:55 METAR KWWD 241255Z AUTO 36007KT 10SM CLR 22/14 A3015 RMK AO2 SLP211 T02220139 =

Support USWX by starting your Amazon purchase here.